createdAt,value
2022-09-03T00:00:10.669Z,98513.81
2022-09-03T00:02:46.252Z,98519.22
2022-09-03T00:05:37.335Z,98517.81
2022-09-03T00:08:23.157Z,98511.63
2022-09-03T00:11:23.445Z,98497.66
2022-09-03T00:14:26.812Z,98502.63
2022-09-03T00:17:02.800Z,98488.53
2022-09-03T00:19:37.369Z,98483.81
2022-09-03T00:22:14.141Z,98469.34
2022-09-03T00:24:44.069Z,98467.53
2022-09-03T00:27:19.286Z,98494.34
2022-09-03T00:30:06.804Z,98488.94
2022-09-03T00:32:52.578Z,98491.16
2022-09-03T00:35:34.461Z,98487.41
2022-09-03T00:38:01.668Z,98481.06
2022-09-03T00:41:04.341Z,98487.56
2022-09-03T00:44:21.496Z,98493.78
2022-09-03T00:46:54.304Z,98498.75
2022-09-03T00:49:29.569Z,98496.53
2022-09-03T00:52:05.227Z,98494.06
2022-09-03T00:54:59.836Z,98495.72
2022-09-03T00:57:57.971Z,98495.31
2022-09-03T01:00:24.787Z,98463.13
2022-09-03T01:03:12.794Z,98471.13
2022-09-03T01:06:11.974Z,98496.81
2022-09-03T01:09:33.298Z,98489.06
2022-09-03T01:12:18.848Z,98485.34
2022-09-03T01:15:04.402Z,98480.22
2022-09-03T01:17:44.888Z,98470.03
2022-09-03T01:20:28.674Z,98468.09
2022-09-03T01:23:35.936Z,98482.03
2022-09-03T01:26:34.883Z,98484.38
2022-09-03T01:29:34.762Z,98476.78
2022-09-03T01:32:25.873Z,98479.41
2022-09-03T01:35:19.236Z,98473.34
2022-09-03T01:38:17.178Z,98492.53
2022-09-03T01:41:28.123Z,98488.00
2022-09-03T01:44:25.599Z,98501.50
2022-09-03T01:47:10.993Z,98498.06
2022-09-03T01:50:17.501Z,98500.41
2022-09-03T01:52:55.687Z,98492.38
2022-09-03T01:55:44.025Z,98505.66
2022-09-03T01:58:21.794Z,98505.38
2022-09-03T02:00:56.747Z,98494.34
2022-09-03T02:03:33.556Z,98488.38
2022-09-03T02:06:01.786Z,98486.59
2022-09-03T02:08:29.265Z,98483.28
2022-09-03T02:11:02.687Z,98491.84
2022-09-03T02:13:42.375Z,98503.47
2022-09-03T02:16:28.136Z,98486.03
2022-09-03T02:19:00.933Z,98500.13
2022-09-03T02:21:35.252Z,98504.56
2022-09-03T02:24:05.254Z,98499.59
2022-09-03T02:26:32.361Z,98495.16
2022-09-03T02:29:01.564Z,98499.03
2022-09-03T02:31:28.875Z,98468.09
2022-09-03T02:33:58.218Z,98503.44
2022-09-03T02:36:33.557Z,98460.72
2022-09-03T02:39:00.561Z,98512.44
2022-09-03T02:41:27.534Z,98500.16
2022-09-03T02:44:17.993Z,98509.81
2022-09-03T02:46:53.610Z,98484.66
2022-09-03T02:49:22.884Z,98494.91
2022-09-03T02:51:51.788Z,98466.72
2022-09-03T02:54:21.072Z,98487.28
2022-09-03T02:56:49.821Z,98504.28
2022-09-03T02:59:17.995Z,98496.25
2022-09-03T03:01:46.660Z,98498.06
2022-09-03T03:04:14.691Z,98518.66
2022-09-03T03:06:41.498Z,98494.47
2022-09-03T03:09:09.417Z,98507.47
2022-09-03T03:11:38.544Z,98501.19
2022-09-03T03:14:05.615Z,98505.75
2022-09-03T03:16:33.616Z,98507.53
2022-09-03T03:19:00.596Z,98511.56
2022-09-03T03:21:28.038Z,98517.34
2022-09-03T03:23:55.923Z,98494.94
2022-09-03T03:26:24.169Z,98498.25
2022-09-03T03:29:00.618Z,98502.81
2022-09-03T03:31:27.990Z,98515.00
2022-09-03T03:33:57.812Z,98526.03
2022-09-03T03:36:28.341Z,98530.72
2022-09-03T03:38:58.134Z,98528.66
2022-09-03T03:41:28.389Z,98531.16
2022-09-03T03:44:00.621Z,98516.75
2022-09-03T03:46:35.428Z,98514.66
2022-09-03T03:49:02.726Z,98525.44
2022-09-03T03:51:32.583Z,98521.59
2022-09-03T03:54:04.338Z,98526.84
2022-09-03T03:56:32.486Z,98520.75
2022-09-03T03:59:00.296Z,98516.56
2022-09-03T04:01:28.957Z,98535.69
2022-09-03T04:03:58.545Z,98526.34
2022-09-03T04:06:25.765Z,98535.78
2022-09-03T04:08:52.617Z,98533.69
2022-09-03T04:11:24.002Z,98541.31
2022-09-03T04:13:52.027Z,98512.59
2022-09-03T04:16:22.455Z,98524.34
2022-09-03T04:18:54.380Z,98515.34
2022-09-03T04:21:28.597Z,98534.84
2022-09-03T04:23:56.900Z,98532.88
2022-09-03T04:26:32.573Z,98533.44
2022-09-03T04:29:08.576Z,98495.66
2022-09-03T04:31:37.430Z,98527.91
2022-09-03T04:34:06.512Z,98525.13
2022-09-03T04:36:34.997Z,98522.31
2022-09-03T04:39:02.374Z,98516.00
2022-09-03T04:41:31.515Z,98535.88
2022-09-03T04:44:00.589Z,98525.66
2022-09-03T04:46:33.138Z,98533.69
2022-09-03T04:49:00.622Z,98538.31
2022-09-03T04:51:28.565Z,98533.94
2022-09-03T04:54:01.619Z,98523.03
2022-09-03T04:56:35.070Z,98536.56
2022-09-03T04:59:06.970Z,98536.44
2022-09-03T05:01:36.399Z,98534.47
2022-09-03T05:04:04.794Z,98546.09
2022-09-03T05:06:33.164Z,98532.56
2022-09-03T05:09:00.641Z,98545.84
2022-09-03T05:11:29.380Z,98538.38
2022-09-03T05:13:59.497Z,98525.66
2022-09-03T05:16:30.070Z,98530.38
2022-09-03T05:18:59.726Z,98534.50
2022-09-03T05:21:26.907Z,98539.50
2022-09-03T05:23:53.976Z,98534.50
2022-09-03T05:26:28.628Z,98518.75
2022-09-03T05:29:09.769Z,98529.25
2022-09-03T05:31:39.235Z,98535.34
2022-09-03T05:34:07.203Z,98534.38
2022-09-03T05:36:37.422Z,98518.75
2022-09-03T05:39:06.305Z,98531.44
2022-09-03T05:41:33.982Z,98539.75
2022-09-03T05:44:01.292Z,98542.81
2022-09-03T05:46:33.886Z,98549.03
2022-09-03T05:49:02.975Z,98543.38
2022-09-03T05:51:31.008Z,98549.88
2022-09-03T05:53:58.772Z,98553.28
2022-09-03T05:56:28.209Z,98555.31
2022-09-03T05:59:01.069Z,98555.34
2022-09-03T06:01:33.902Z,98560.34
2022-09-03T06:04:01.536Z,98564.09
2022-09-03T06:06:31.930Z,98537.25
2022-09-03T06:09:02.546Z,98550.66
2022-09-03T06:11:32.898Z,98568.66
2022-09-03T06:14:02.064Z,98559.28
2022-09-03T06:16:32.135Z,98548.75
2022-09-03T06:19:00.772Z,98547.47
2022-09-03T06:21:28.676Z,98556.66
2022-09-03T06:23:59.363Z,98569.34
2022-09-03T06:26:28.707Z,98572.78
2022-09-03T06:28:57.323Z,98562.44
2022-09-03T06:31:24.972Z,98558.59
2022-09-03T06:33:54.543Z,98573.91
2022-09-03T06:36:23.104Z,98552.50
2022-09-03T06:38:54.333Z,98564.81
2022-09-03T06:41:25.360Z,98568.97
2022-09-03T06:44:03.102Z,98564.69
2022-09-03T06:46:34.985Z,98572.44
2022-09-03T06:49:02.267Z,98564.19
2022-09-03T06:51:31.990Z,98565.53
2022-09-03T06:54:06.237Z,98555.31
2022-09-03T06:56:39.572Z,98573.56
2022-09-03T06:59:13.925Z,98566.84
2022-09-03T07:01:45.189Z,98549.53
2022-09-03T07:04:16.120Z,98547.16
2022-09-03T07:06:44.361Z,98565.19
2022-09-03T07:09:14.879Z,98559.25
2022-09-03T07:11:47.271Z,98562.72
2022-09-03T07:14:17.234Z,98538.81
2022-09-03T07:16:44.133Z,98561.75
2022-09-03T07:19:13.317Z,98567.72
2022-09-03T07:21:44.080Z,98571.16
2022-09-03T07:24:15.264Z,98578.91
2022-09-03T07:26:49.321Z,98559.56
2022-09-03T07:29:19.895Z,98558.31
2022-09-03T07:31:46.856Z,98546.00
2022-09-03T07:34:15.069Z,98558.16
2022-09-03T07:36:48.883Z,98572.69
2022-09-03T07:39:17.860Z,98559.00
2022-09-03T07:41:46.023Z,98563.72
2022-09-03T07:44:15.187Z,98570.06
2022-09-03T07:46:43.690Z,98573.53
2022-09-03T07:49:10.970Z,98560.25
2022-09-03T07:51:39.294Z,98571.56
2022-09-03T07:54:10.874Z,98575.59
2022-09-03T07:56:39.713Z,98568.16
2022-09-03T07:59:06.980Z,98567.88
2022-09-03T08:01:35.250Z,98570.50
2022-09-03T08:04:04.220Z,98579.91
2022-09-03T08:06:33.957Z,98578.50
2022-09-03T08:09:05.741Z,98573.38
2022-09-03T08:11:43.320Z,98580.84
2022-09-03T08:14:12.868Z,98577.84
2022-09-03T08:16:44.115Z,98592.34
2022-09-03T08:19:13.452Z,98595.50
2022-09-03T08:21:44.642Z,98588.31
2022-09-03T08:24:12.786Z,98590.81
2022-09-03T08:26:51.143Z,98583.63
2022-09-03T08:29:19.486Z,98576.69
2022-09-03T08:31:46.555Z,98589.13
2022-09-03T08:34:14.777Z,98583.72
2022-09-03T08:36:41.867Z,98576.72
2022-09-03T08:39:11.010Z,98584.47
2022-09-03T08:41:53.318Z,98596.63
2022-09-03T08:44:30.077Z,98584.44
2022-09-03T08:47:22.601Z,98596.59
2022-09-03T08:50:17.342Z,98603.50
2022-09-03T08:53:02.429Z,98598.81
2022-09-03T08:55:36.213Z,98585.81
2022-09-03T08:58:10.772Z,98592.97
2022-09-03T09:01:07.876Z,98603.19
2022-09-03T09:03:49.781Z,98594.72
2022-09-03T09:06:36.550Z,98601.47
2022-09-03T09:09:35.579Z,98597.41
2022-09-03T09:12:23.287Z,98604.75
2022-09-03T09:15:12.154Z,98604.84
2022-09-03T09:18:15.745Z,98613.78
2022-09-03T09:21:21.372Z,98596.00
2022-09-03T09:23:51.112Z,98608.31
2022-09-03T09:26:24.113Z,98601.25
2022-09-03T09:29:11.420Z,98609.13
2022-09-03T09:31:40.080Z,98605.38
2022-09-03T09:34:09.061Z,98582.47
2022-09-03T09:36:54.471Z,98588.78
2022-09-03T09:39:22.671Z,98602.72
2022-09-03T09:41:59.631Z,98607.56
2022-09-03T09:44:28.016Z,98602.47
2022-09-03T09:47:32.610Z,98598.91
2022-09-03T09:50:05.162Z,98607.34
2022-09-03T09:52:32.247Z,98582.00
2022-09-03T09:55:19.630Z,98583.94
2022-09-03T09:57:46.533Z,98579.13
2022-09-03T10:00:17.388Z,98606.66
2022-09-03T10:02:54.494Z,98598.47
2022-09-03T10:05:26.542Z,98597.84
2022-09-03T10:08:06.595Z,98592.34
2022-09-03T10:10:49.759Z,98577.97
2022-09-03T10:13:19.354Z,98583.31
2022-09-03T10:16:01.546Z,98589.25
2022-09-03T10:18:45.743Z,98587.88
2022-09-03T10:21:25.096Z,98585.25
2022-09-03T10:24:25.854Z,98586.59
2022-09-03T10:26:52.668Z,98585.59
2022-09-03T10:29:29.394Z,98587.72
2022-09-03T10:32:49.978Z,98587.13
2022-09-03T10:35:38.218Z,98569.41
2022-09-03T10:38:34.034Z,98573.88
2022-09-03T10:41:48.584Z,98584.63
2022-09-03T10:44:38.913Z,98575.16
2022-09-03T10:47:42.895Z,98587.47
2022-09-03T10:50:23.805Z,98592.09
2022-09-03T10:52:53.278Z,98588.22
2022-09-03T10:55:31.509Z,98569.97
2022-09-03T10:58:50.732Z,98582.78
2022-09-03T11:01:26.035Z,98571.38
2022-09-03T11:04:30.641Z,98569.75
2022-09-03T11:07:13.642Z,98555.13
2022-09-03T11:09:52.626Z,98563.47
2022-09-03T11:12:31.611Z,98561.88
2022-09-03T11:15:07.298Z,98537.56
2022-09-03T11:18:00.801Z,98553.59
2022-09-03T11:20:28.055Z,98548.63
2022-09-03T11:22:59.335Z,98552.47
2022-09-03T11:25:34.801Z,98560.41
2022-09-03T11:28:42.223Z,98547.75
2022-09-03T11:31:31.493Z,98530.88
2022-09-03T11:34:22.163Z,98537.19
2022-09-03T11:36:50.636Z,98527.25
2022-09-03T11:39:36.870Z,98534.75
2022-09-03T11:42:28.714Z,98545.09
2022-09-03T11:45:20.852Z,98537.78
2022-09-03T11:47:48.312Z,98539.91
2022-09-03T11:50:31.047Z,98539.25
2022-09-03T11:53:28.352Z,98550.16
2022-09-03T11:56:07.340Z,98556.59
2022-09-03T11:58:37.795Z,98546.66
2022-09-03T12:01:12.323Z,98544.06
2022-09-03T12:03:52.020Z,98586.84
2022-09-03T12:07:05.118Z,98601.09
2022-09-03T12:09:46.039Z,98574.03
2022-09-03T12:12:55.588Z,98586.78
2022-09-03T12:15:50.368Z,98623.09
2022-09-03T12:18:26.006Z,98623.34
2022-09-03T12:20:52.824Z,98624.94
2022-09-03T12:23:49.275Z,98641.38
2022-09-03T12:26:23.757Z,98677.22
2022-09-03T12:28:57.635Z,98686.47
2022-09-03T12:31:31.308Z,98656.09
2022-09-03T12:34:12.147Z,98662.72
2022-09-03T12:36:47.894Z,98687.56
2022-09-03T12:40:04.806Z,98690.41
2022-09-03T12:42:23.721Z,98683.03
2022-09-03T12:44:50.642Z,98666.88
2022-09-03T12:47:37.987Z,98665.69
2022-09-03T12:50:13.632Z,98658.78
2022-09-03T12:52:57.128Z,98693.06
2022-09-03T12:55:57.338Z,98686.69
2022-09-03T12:58:27.765Z,98690.31
2022-09-03T13:01:03.852Z,98700.00
2022-09-03T13:03:57.937Z,98685.38
2022-09-03T13:06:44.889Z,98674.72
2022-09-03T13:09:13.258Z,98689.13
2022-09-03T13:11:40.248Z,98692.63
2022-09-03T13:14:11.717Z,98690.59
2022-09-03T13:16:44.853Z,98688.16
2022-09-03T13:19:51.110Z,98684.63
2022-09-03T13:22:54.290Z,98687.44
2022-09-03T13:25:46.139Z,98682.47
2022-09-03T13:28:55.526Z,98697.44
2022-09-03T13:31:33.934Z,98699.94
2022-09-03T13:34:12.159Z,98695.94
2022-09-03T13:36:56.805Z,98703.03
2022-09-03T13:39:42.140Z,98702.91
2022-09-03T13:42:24.148Z,98707.50
2022-09-03T13:45:00.406Z,98684.56
2022-09-03T13:48:01.694Z,98706.13
2022-09-03T13:50:33.877Z,98685.25
2022-09-03T13:53:04.801Z,98693.47
2022-09-03T13:55:31.524Z,98687.91
2022-09-03T13:58:20.362Z,98685.97
2022-09-03T14:01:20.149Z,98666.75
2022-09-03T14:03:58.731Z,98683.22
2022-09-03T14:06:38.017Z,98672.97
2022-09-03T14:09:34.819Z,98668.00
2022-09-03T14:12:14.187Z,98661.34
2022-09-03T14:15:05.460Z,98661.47
2022-09-03T14:17:59.249Z,98638.38
2022-09-03T14:20:31.538Z,98661.97
2022-09-03T14:23:26.182Z,98665.16
2022-09-03T14:25:57.577Z,98660.63
2022-09-03T14:28:41.910Z,98655.34
2022-09-03T14:31:41.949Z,98666.25
2022-09-03T14:34:38.161Z,98658.38
2022-09-03T14:37:31.403Z,98659.31
2022-09-03T14:40:21.967Z,98654.56
2022-09-03T14:43:22.107Z,98658.38
2022-09-03T14:45:55.742Z,98639.56
2022-09-03T14:49:00.776Z,98646.97
2022-09-03T14:52:03.407Z,98634.78
2022-09-03T14:55:15.057Z,98620.94
2022-09-03T14:58:19.406Z,98618.22
2022-09-03T15:00:58.137Z,98636.03
2022-09-03T15:03:55.469Z,98636.25
2022-09-03T15:06:31.293Z,98633.13
2022-09-03T15:09:28.739Z,98620.34
2022-09-03T15:12:23.839Z,98617.50
2022-09-03T15:14:56.646Z,98618.56
2022-09-03T15:17:40.649Z,98632.13
2022-09-03T15:20:24.315Z,98625.41
2022-09-03T15:23:12.483Z,98624.50
2022-09-03T15:26:00.058Z,98613.44
2022-09-03T15:29:13.298Z,98616.81
2022-09-03T15:32:01.501Z,98606.13
2022-09-03T15:34:53.924Z,98621.88
2022-09-03T15:37:35.204Z,98623.75
2022-09-03T15:40:11.005Z,98630.69
2022-09-03T15:42:38.858Z,98596.94
2022-09-03T15:45:57.674Z,98626.75
2022-09-03T15:48:53.397Z,98612.38
2022-09-03T15:51:27.180Z,98624.31
2022-09-03T15:54:12.624Z,98622.44
2022-09-03T15:56:59.179Z,98621.31
2022-09-03T15:59:38.324Z,98625.78
2022-09-03T16:03:00.757Z,98616.88
2022-09-03T16:05:52.246Z,98618.38
2022-09-03T16:08:38.186Z,98626.50
2022-09-03T16:11:39.330Z,98626.94
2022-09-03T16:14:35.946Z,98622.25
2022-09-03T16:17:21.244Z,98639.00
2022-09-03T16:20:08.741Z,98637.97
2022-09-03T16:23:04.796Z,98631.91
2022-09-03T16:26:00.096Z,98638.94
2022-09-03T16:28:41.328Z,98646.63
2022-09-03T16:32:09.422Z,98641.84
2022-09-03T16:35:15.222Z,98631.25
2022-09-03T16:38:23.091Z,98635.78
2022-09-03T16:41:18.574Z,98630.28
2022-09-03T16:44:24.814Z,98634.53
2022-09-03T16:47:11.813Z,98634.81
2022-09-03T16:49:39.891Z,98611.34
2022-09-03T16:52:37.622Z,98617.66
2022-09-03T16:55:34.717Z,98632.34
2022-09-03T16:58:23.710Z,98629.97
2022-09-03T17:01:09.142Z,98642.13
2022-09-03T17:04:00.824Z,98615.13
2022-09-03T17:07:03.690Z,98599.94
2022-09-03T17:10:01.611Z,98640.94
2022-09-03T17:12:48.886Z,98628.44
2022-09-03T17:15:34.585Z,98628.44
2022-09-03T17:18:26.360Z,98628.22
2022-09-03T17:21:04.583Z,98658.69
2022-09-03T17:23:59.644Z,98648.16
2022-09-03T17:26:48.108Z,98641.47
2022-09-03T17:30:02.506Z,98643.69
2022-09-03T17:33:09.996Z,98648.69
2022-09-03T17:35:51.769Z,98650.09
2022-09-03T17:39:01.495Z,98654.66
2022-09-03T17:41:43.863Z,98662.63
2022-09-03T17:44:54.444Z,98634.78
2022-09-03T17:47:42.446Z,98662.25
2022-09-03T17:50:11.968Z,98676.44
2022-09-03T17:52:46.169Z,98669.63
2022-09-03T17:55:36.511Z,98633.25
2022-09-03T17:58:32.700Z,98675.72
2022-09-03T18:01:13.654Z,98677.81
2022-09-03T18:04:03.288Z,98684.50
2022-09-03T18:06:37.587Z,98676.50
2022-09-03T18:09:28.546Z,98692.13
2022-09-03T18:12:10.692Z,98702.13
2022-09-03T18:14:51.724Z,98696.41
2022-09-03T18:17:32.897Z,98695.63
2022-09-03T18:20:26.851Z,98695.25
2022-09-03T18:23:35.992Z,98699.53
2022-09-03T18:26:34.963Z,98712.25
2022-09-03T18:29:32.121Z,98699.28
2022-09-03T18:32:19.506Z,98715.88
2022-09-03T18:35:06.252Z,98705.91
2022-09-03T18:37:51.429Z,98707.28
2022-09-03T18:40:46.500Z,98679.47
2022-09-03T18:43:49.265Z,98710.34
2022-09-03T18:50:31.116Z,98729.84
2022-09-03T18:53:47.781Z,98719.31
2022-09-03T18:56:55.677Z,98724.16
2022-09-03T19:00:32.430Z,98739.41
2022-09-03T19:04:01.071Z,98734.69
2022-09-03T19:07:25.067Z,98733.56
2022-09-03T19:10:29.433Z,98739.34
2022-09-03T19:13:45.614Z,98747.94
2022-09-03T19:17:11.046Z,98753.47
2022-09-03T19:20:42.827Z,98754.56
2022-09-03T19:23:29.270Z,98751.66
2022-09-03T19:26:40.086Z,98753.72
2022-09-03T19:29:52.955Z,98755.91
2022-09-03T19:32:52.258Z,98729.03
2022-09-03T19:35:41.964Z,98737.59
2022-09-03T19:38:46.282Z,98742.56
2022-09-03T19:41:54.385Z,98767.91
2022-09-03T19:45:10.392Z,98766.22
2022-09-03T19:48:27.861Z,98769.41
2022-09-03T19:52:18.456Z,98772.88
2022-09-03T19:55:07.627Z,98775.31
2022-09-03T19:57:53.312Z,98767.13
2022-09-03T20:00:41.423Z,98771.97
2022-09-03T20:03:26.727Z,98783.19
2022-09-03T20:06:12.218Z,98781.94
2022-09-03T20:08:57.613Z,98784.00
2022-09-03T20:11:27.597Z,98790.47
2022-09-03T20:14:13.153Z,98776.22
2022-09-03T20:17:12.826Z,98799.47
2022-09-03T20:20:10.410Z,98782.28
2022-09-03T20:22:52.313Z,98790.81
2022-09-03T20:26:08.444Z,98798.91
2022-09-03T20:28:52.422Z,98801.53
2022-09-03T20:32:03.071Z,98807.69
2022-09-03T20:34:50.937Z,98811.16
2022-09-03T20:38:24.429Z,98811.00
2022-09-03T20:41:13.970Z,98798.78
2022-09-03T20:44:16.975Z,98822.97
2022-09-03T20:47:04.466Z,98809.75
2022-09-03T20:49:51.617Z,98817.44
2022-09-03T20:52:45.691Z,98833.38
2022-09-03T20:55:25.281Z,98816.59
2022-09-03T20:58:19.414Z,98829.59
2022-09-03T21:01:08.412Z,98839.59
2022-09-03T21:04:33.933Z,98831.84
2022-09-03T21:07:12.837Z,98825.59
2022-09-03T21:09:55.218Z,98841.19
2022-09-03T21:13:18.117Z,98816.38
2022-09-03T21:16:23.772Z,98838.72
2022-09-03T21:19:11.904Z,98826.78
2022-09-03T21:21:45.650Z,98843.19
2022-09-03T21:24:21.644Z,98840.34
2022-09-03T21:26:58.852Z,98831.19
2022-09-03T21:29:50.517Z,98830.06
2022-09-03T21:32:24.071Z,98843.38
2022-09-03T21:35:21.698Z,98846.41
2022-09-03T21:37:59.553Z,98839.84
2022-09-03T21:40:32.460Z,98827.09
2022-09-03T21:43:17.570Z,98839.97
2022-09-03T21:46:04.248Z,98848.19
2022-09-03T21:48:42.197Z,98841.75
2022-09-03T21:51:30.024Z,98857.56
2022-09-03T21:54:09.497Z,98845.03
2022-09-03T21:56:55.569Z,98836.44
2022-09-03T22:00:09.107Z,98845.91
2022-09-03T22:02:36.362Z,98831.00
2022-09-03T22:05:05.332Z,98864.19
2022-09-03T22:07:50.694Z,98868.59
2022-09-03T22:10:26.069Z,98880.16
2022-09-03T22:13:17.254Z,98879.22
2022-09-03T22:15:50.205Z,98886.19
2022-09-03T22:18:29.401Z,98892.66
2022-09-03T22:21:26.950Z,98889.44
2022-09-03T22:24:23.510Z,98881.56
2022-09-03T22:27:29.104Z,98900.97
2022-09-03T22:30:20.209Z,98900.19
2022-09-03T22:33:21.709Z,98882.44
2022-09-03T22:36:13.003Z,98913.19
2022-09-03T22:39:08.078Z,98890.28
2022-09-03T22:42:11.577Z,98890.03
2022-09-03T22:44:55.497Z,98866.44
2022-09-03T22:48:07.658Z,98854.31
2022-09-03T22:50:57.025Z,98879.53
2022-09-03T22:53:52.699Z,98888.25
2022-09-03T22:56:22.410Z,98870.63
2022-09-03T22:59:15.709Z,98884.78
2022-09-03T23:02:00.499Z,98849.56
2022-09-03T23:04:57.994Z,98878.38
2022-09-03T23:07:48.179Z,98894.56
2022-09-03T23:10:25.751Z,98895.81
2022-09-03T23:13:16.889Z,98879.97
2022-09-03T23:15:46.764Z,98897.47
2022-09-03T23:18:17.859Z,98868.22
2022-09-03T23:21:03.299Z,98895.63
2022-09-03T23:23:36.240Z,98891.69
2022-09-03T23:26:15.589Z,98893.47
2022-09-03T23:28:49.664Z,98883.25
2022-09-03T23:31:21.758Z,98897.78
2022-09-03T23:33:52.090Z,98863.72
2022-09-03T23:40:41.832Z,98902.97
2022-09-03T23:43:31.009Z,98905.00
2022-09-03T23:46:26.258Z,98907.03
2022-09-03T23:49:15.178Z,98906.34
2022-09-03T23:51:54.222Z,98903.03
2022-09-03T23:54:39.017Z,98886.59
2022-09-03T23:57:40.989Z,98885.19
